Airfield :
LOGIN :

Register | Disclaimer

   EN    FR    IT 

 










Legend :    VFR   Marginal VFR   IFR   Intensive IFR   Very Intensive IFR
Visi :
Ceiling :
>= 8 km
>= 3000ft
5 to 8 km
1000 to 3000 ft
1500m to 5 km
500 to 1000 ft
800 to 1500m
200 to 500 ft
< 800m
< 200 ft
Symbols :   Thunderstorms  Fog  Heavy snow  Heavy precipitations  Wind > 20 kt
SIGMETs :     Misc.  Thunderstorms  Icing  Turbulence  Mountain Waves  Volcanic Ashes






- Airport Elevation : 93 ft
- IATA code : HDF


EDAH - Heringsdorf

CURRENT METAR :
  • 251020Z 19007KT 160V220 0450 R10/1000N FG VV/// 01/01 Q1019

EXPIRED METARs :
  • 250950Z 19008KT 0450 R10/1000 FG VV/// 01/01 Q1019
  • 250920Z 18010KT 0450 R10/1000N FG VV/// 01/01 Q1019
  • 250850Z 17009KT 0450 R10/0700N FG VV/// 01/01 Q1019
  • 250820Z 17010KT 0500 R10/0700N FG VV/// 01/01 Q1019
  • 250750Z 16010KT 0450 R10/0800N FG VV/// 01/01 Q1019

TAF TAF EDAH
Valid from the 25 at 09:00 until the 25 at 18:00 UTC


250800Z 2509/2518 18008KT 0100 FG OVC001
TEMPO 2509/2512 0700 FG
BECMG 2512/2516 3500 BR BKN003
TEMPO 2516/2518 0500 FG BKN001



MET'MAP, your aeronautical weather chart ! - Copyright ORBIFLY December 2007 - Disclaimer

ORBIFLY MET'MAP TEAM :

Programming & Development : Alexandra Zaïnal
Concept & original design : Baudouin d'Aumeries
Assistance for programming : Marc-Olivier Méhu
Technical & hardware support : Manuel Goepfert

Contact : metmap@orbifly.com




SOURCES & CREDITS :

   NOAA